Time;durP1;ratioP1;P1;durP2;ratioP2;P2;SDS_P1;SDS_P2;PMS_P1;PMS_P2;Temp;Humidity;BMP_temperature;BMP_pressure;BME280_temperature;BME280_humidity;BME280_pressure;Samples;Min_cycle;Max_cycle;Signal;HPM_P1;HPM_P2
2023/04/22 00:02:07;;;;;;;;;9.25;7.50;;;;;;;;120018;1183;25023;-69
2023/04/22 00:04:36;;;;;;;;;7.50;7.50;;;;;;;;119936;1190;25073;-68
2023/04/22 00:07:05;;;;;;;;;12.00;8.00;;;;;;;;119923;1190;24852;-68
2023/04/22 00:09:33;;;;;;;;;7.50;7.50;;;;;;;;119939;1190;24931;-69
2023/04/22 00:12:01;;;;;;;;;9.50;6.50;;;;;;;;119931;1190;24692;-68
2023/04/22 00:14:30;;;;;;;;;8.00;7.67;;;;;;;;119948;1182;24836;-67
2023/04/22 00:16:59;;;;;;;;;7.00;7.00;;;;;;;;119943;1181;25704;-69
2023/04/22 00:19:27;;;;;;;;;7.50;7.00;;;;;;;;119940;1190;25331;-69
2023/04/22 00:21:56;;;;;;;;;7.75;6.50;;;;;;;;119907;1190;25050;-69
2023/04/22 00:24:24;;;;;;;;;6.50;5.50;;;;;;;;119935;1190;24945;-68
2023/04/22 00:26:52;;;;;;;;;6.00;6.00;;;;;;;;119902;1190;25045;-67
2023/04/22 00:29:21;;;;;;;;;8.67;7.00;;;;;;;;119944;1190;25526;-68
2023/04/22 00:31:49;;;;;;;;;8.50;7.50;;;;;;;;119891;1190;25230;-67
2023/04/22 00:34:18;;;;;;;;;10.00;8.00;;;;;;;;119929;1186;25525;-68
2023/04/22 00:36:46;;;;;;;;;6.75;6.75;;;;;;;;119916;1190;25319;-67
2023/04/22 00:39:15;;;;;;;;;8.00;8.00;;;;;;;;119936;1182;25116;-67
2023/04/22 00:41:43;;;;;;;;;7.00;5.67;;;;;;;;119908;1190;24961;-67
2023/04/22 00:44:11;;;;;;;;;10.25;6.75;;;;;;;;119934;1190;25811;-67
2023/04/22 00:46:40;;;;;;;;;7.33;7.33;;;;;;;;119903;1190;25684;-67
2023/04/22 00:49:08;;;;;;;;;6.50;6.00;;;;;;;;119895;1190;25139;-68
2023/04/22 00:51:36;;;;;;;;;10.00;7.75;;;;;;;;119931;1181;25194;-66
2023/04/22 00:54:05;;;;;;;;;5.75;5.25;;;;;;;;119920;1182;24919;-68
2023/04/22 00:56:34;;;;;;;;;9.00;8.00;;;;;;;;119921;1190;25187;-68
2023/04/22 00:59:03;;;;;;;;;6.00;6.00;;;;;;;;119919;1190;24745;-68
2023/04/22 01:01:32;;;;;;;;;7.00;7.00;;;;;;;;119918;1190;25146;-68
2023/04/22 01:04:00;;;;;;;;;7.00;7.00;;;;;;;;119920;1190;25060;-68
2023/04/22 01:06:32;;;;;;;;;6.00;5.00;;;;;;;;119919;1190;25498;-68
2023/04/22 01:09:00;;;;;;;;;6.50;6.00;;;;;;;;119906;1190;25156;-66
2023/04/22 01:11:29;;;;;;;;;4.50;4.50;;;;;;;;119896;1183;25557;-68
2023/04/22 01:13:57;;;;;;;;;5.67;5.67;;;;;;;;119913;1190;24848;-68
2023/04/22 01:16:27;;;;;;;;;6.00;6.00;;;;;;;;119925;1190;25476;-68
2023/04/22 01:18:56;;;;;;;;;7.33;7.33;;;;;;;;119895;1190;25014;-68
2023/04/22 01:21:25;;;;;;;;;4.33;4.33;;;;;;;;119911;1190;25448;-68
2023/04/22 01:23:54;;;;;;;;;8.33;6.00;;;;;;;;119900;1190;25268;-68
2023/04/22 01:26:22;;;;;;;;;6.25;5.75;;;;;;;;119879;1190;25458;-68
2023/04/22 01:28:50;;;;;;;;;5.25;4.25;;;;;;;;119912;1190;25031;-67
2023/04/22 01:31:19;;;;;;;;;5.50;5.00;;;;;;;;119734;1184;25082;-67
2023/04/22 01:33:48;;;;;;;;;4.25;4.25;;;;;;;;119879;1190;25803;-67
2023/04/22 01:36:16;;;;;;;;;4.67;4.67;;;;;;;;119915;1190;25632;-68
2023/04/22 01:38:45;;;;;;;;;7.75;5.50;;;;;;;;119886;1182;24818;-67
2023/04/22 01:41:13;;;;;;;;;5.00;4.00;;;;;;;;119913;1190;25492;-68
2023/04/22 01:43:42;;;;;;;;;5.00;4.50;;;;;;;;119892;1182;24992;-66
2023/04/22 01:46:10;;;;;;;;;5.50;3.25;;;;;;;;119711;1188;25601;-68
2023/04/22 01:48:39;;;;;;;;;5.67;3.67;;;;;;;;119908;1190;25683;-68
2023/04/22 01:51:07;;;;;;;;;6.00;4.75;;;;;;;;119890;1190;24853;-68
2023/04/22 01:53:35;;;;;;;;;5.00;4.33;;;;;;;;119909;1190;25754;-68
2023/04/22 01:56:04;;;;;;;;;2.00;2.00;;;;;;;;119906;1182;25560;-68
2023/04/22 01:58:32;;;;;;;;;6.00;6.00;;;;;;;;119876;1190;24692;-68
2023/04/22 02:01:00;;;;;;;;;6.00;5.00;;;;;;;;119932;1190;25544;-67
2023/04/22 02:03:29;;;;;;;;;7.00;5.33;;;;;;;;119901;1190;25056;-67
2023/04/22 02:05:57;;;;;;;;;3.33;3.00;;;;;;;;119908;1190;25188;-69
2023/04/22 02:08:25;;;;;;;;;3.00;3.00;;;;;;;;119938;1190;25268;-68
2023/04/22 02:10:54;;;;;;;;;5.50;5.50;;;;;;;;119926;1181;24884;-67
2023/04/22 02:13:22;;;;;;;;;6.00;6.00;;;;;;;;119903;1190;25104;-68
2023/04/22 02:15:50;;;;;;;;;4.33;4.33;;;;;;;;119934;1190;25070;-68
2023/04/22 02:18:18;;;;;;;;;5.00;5.00;;;;;;;;119891;1182;24738;-68
2023/04/22 02:20:47;;;;;;;;;4.00;4.00;;;;;;;;119922;1181;25052;-68
2023/04/22 02:23:15;;;;;;;;;6.75;5.00;;;;;;;;119909;1190;25536;-67
2023/04/22 02:25:51;;;;;;;;;5.00;5.00;;;;;;;;119904;1190;25484;-67
2023/04/22 02:28:19;;;;;;;;;4.50;4.50;;;;;;;;119904;1190;25340;-68
2023/04/22 02:30:47;;;;;;;;;6.00;5.00;;;;;;;;119921;1190;25028;-67
2023/04/22 02:33:16;;;;;;;;;1.50;1.50;;;;;;;;119718;1190;24983;-68
2023/04/22 02:35:44;;;;;;;;;3.00;3.00;;;;;;;;119941;1181;25372;-68
2023/04/22 02:38:12;;;;;;;;;6.50;5.50;;;;;;;;119946;1190;26292;-67
2023/04/22 02:40:41;;;;;;;;;5.75;5.00;;;;;;;;119881;1190;24959;-67
2023/04/22 02:43:09;;;;;;;;;7.00;5.00;;;;;;;;119952;1182;25498;-68
2023/04/22 02:45:39;;;;;;;;;4.67;4.33;;;;;;;;119892;1190;25296;-67
2023/04/22 02:48:07;;;;;;;;;5.33;4.33;;;;;;;;119929;1190;25396;-68
2023/04/22 02:50:36;;;;;;;;;5.25;4.00;;;;;;;;119894;1190;25586;-67
2023/04/22 02:53:04;;;;;;;;;7.67;4.67;;;;;;;;119903;1190;25559;-67
2023/04/22 02:55:32;;;;;;;;;7.00;5.00;;;;;;;;119921;1190;25258;-67
2023/04/22 02:58:01;;;;;;;;;4.33;3.67;;;;;;;;119902;1190;25662;-68
2023/04/22 03:00:29;;;;;;;;;5.67;5.00;;;;;;;;119918;1182;25057;-67
2023/04/22 03:02:57;;;;;;;;;6.00;5.00;;;;;;;;119919;1179;24847;-67
2023/04/22 03:05:26;;;;;;;;;5.25;3.75;;;;;;;;119974;1182;25435;-67
2023/04/22 03:07:54;;;;;;;;;7.50;6.25;;;;;;;;119903;1190;25304;-68
2023/04/22 03:10:22;;;;;;;;;5.00;5.00;;;;;;;;119920;1190;25510;-68
2023/04/22 03:12:51;;;;;;;;;6.50;4.50;;;;;;;;119926;1190;25115;-68
2023/04/22 03:15:19;;;;;;;;;3.00;3.00;;;;;;;;119941;1181;25719;-68
2023/04/22 03:17:48;;;;;;;;;3.00;2.00;;;;;;;;119936;1190;25454;-67
2023/04/22 03:20:17;;;;;;;;;5.50;5.00;;;;;;;;119935;1190;25377;-68
2023/04/22 03:22:45;;;;;;;;;4.67;4.67;;;;;;;;119886;1190;24955;-67
2023/04/22 03:25:13;;;;;;;;;6.00;3.50;;;;;;;;119935;1190;24961;-67
2023/04/22 03:27:41;;;;;;;;;6.00;5.00;;;;;;;;119892;1190;25346;-67
2023/04/22 03:30:10;;;;;;;;;4.00;4.00;;;;;;;;119926;1182;25233;-68
2023/04/22 03:32:38;;;;;;;;;2.67;2.67;;;;;;;;119868;1190;24808;-67
2023/04/22 03:35:07;;;;;;;;;4.75;4.75;;;;;;;;119900;1190;25631;-68
2023/04/22 03:37:35;;;;;;;;;3.50;2.50;;;;;;;;119925;1181;25708;-67
2023/04/22 03:40:04;;;;;;;;;4.25;3.25;;;;;;;;119899;1190;24689;-67
2023/04/22 03:42:32;;;;;;;;;3.33;3.33;;;;;;;;119888;1190;25092;-66
2023/04/22 03:45:01;;;;;;;;;4.75;3.75;;;;;;;;119901;1190;25102;-67
2023/04/22 03:47:29;;;;;;;;;4.00;4.00;;;;;;;;119947;1190;24933;-67
2023/04/22 03:49:57;;;;;;;;;5.33;5.00;;;;;;;;119954;1182;26218;-67
2023/04/22 03:52:25;;;;;;;;;7.00;4.00;;;;;;;;119919;1190;25493;-67
2023/04/22 03:54:53;;;;;;;;;4.00;3.33;;;;;;;;119923;1190;25425;-67
2023/04/22 03:57:22;;;;;;;;;3.25;3.25;;;;;;;;119948;1182;24908;-67
2023/04/22 03:59:50;;;;;;;;;4.00;3.33;;;;;;;;119925;1182;25358;-67
2023/04/22 04:02:18;;;;;;;;;3.00;3.00;;;;;;;;119879;1190;25108;-67
2023/04/22 04:04:47;;;;;;;;;6.50;6.50;;;;;;;;119925;1190;24952;-64
2023/04/22 04:07:15;;;;;;;;;3.00;3.00;;;;;;;;119923;1190;25313;-67
2023/04/22 04:09:44;;;;;;;;;3.75;3.75;;;;;;;;119941;1190;25561;-67
2023/04/22 04:12:12;;;;;;;;;3.67;3.00;;;;;;;;119927;1190;25069;-68
2023/04/22 04:14:40;;;;;;;;;3.00;3.00;;;;;;;;119930;1181;25022;-67
2023/04/22 04:17:08;;;;;;;;;6.00;4.33;;;;;;;;119931;1190;24833;-68
2023/04/22 04:19:37;;;;;;;;;3.33;3.00;;;;;;;;119886;1190;25429;-68
2023/04/22 04:22:05;;;;;;;;;4.75;2.75;;;;;;;;119902;1190;25210;-67
2023/04/22 04:24:35;;;;;;;;;6.00;5.00;;;;;;;;119919;1190;26514;-67
2023/04/22 04:27:03;;;;;;;;;4.00;4.00;;;;;;;;119912;1190;25038;-68
2023/04/22 04:29:31;;;;;;;;;6.33;5.33;;;;;;;;119892;1190;25650;-65
2023/04/22 04:32:00;;;;;;;;;10.00;7.00;;;;;;;;119901;1190;24926;-65
2023/04/22 04:34:28;;;;;;;;;9.75;8.25;;;;;;;;119912;1190;25711;-64
2023/04/22 04:36:57;;;;;;;;;9.25;8.50;;;;;;;;119907;1190;25060;-64
2023/04/22 04:39:28;;;;;;;;;11.50;10.50;;;;;;;;119923;1190;25165;-64
2023/04/22 04:41:57;;;;;;;;;14.00;7.67;;;;;;;;119955;1181;25352;-64
2023/04/22 04:44:26;;;;;;;;;12.50;11.25;;;;;;;;119891;1190;24909;-68
2023/04/22 04:46:54;;;;;;;;;15.67;10.33;;;;;;;;119877;1182;24680;-68
2023/04/22 04:49:23;;;;;;;;;11.25;8.50;;;;;;;;119932;1190;24897;-69
2023/04/22 04:51:51;;;;;;;;;13.50;11.75;;;;;;;;119900;1182;24873;-69
2023/04/22 04:54:19;;;;;;;;;11.67;10.00;;;;;;;;119905;1190;25206;-67
2023/04/22 04:56:48;;;;;;;;;7.75;7.75;;;;;;;;119900;1190;25392;-67
2023/04/22 04:59:16;;;;;;;;;16.50;7.75;;;;;;;;119958;1181;25362;-67
2023/04/22 05:01:44;;;;;;;;;12.25;9.75;;;;;;;;119933;1190;25489;-67
2023/04/22 05:04:13;;;;;;;;;12.50;9.25;;;;;;;;119910;1186;24878;-70
2023/04/22 05:06:41;;;;;;;;;15.33;10.00;;;;;;;;119904;1190;24910;-68
2023/04/22 05:09:10;;;;;;;;;13.00;8.00;;;;;;;;119898;1186;24999;-68
2023/04/22 05:11:38;;;;;;;;;12.00;7.25;;;;;;;;119933;1182;25272;-67
2023/04/22 05:14:06;;;;;;;;;10.00;8.50;;;;;;;;119937;1190;25149;-65
2023/04/22 05:16:35;;;;;;;;;10.67;10.67;;;;;;;;119900;1190;24736;-67
2023/04/22 05:19:03;;;;;;;;;15.33;12.33;;;;;;;;119905;1182;24718;-67
2023/04/22 05:21:31;;;;;;;;;10.33;10.33;;;;;;;;119944;1182;25140;-67
2023/04/22 05:24:00;;;;;;;;;9.67;8.67;;;;;;;;119922;1190;25518;-66
2023/04/22 05:26:28;;;;;;;;;17.25;9.50;;;;;;;;119935;1186;25416;-67
2023/04/22 05:28:56;;;;;;;;;13.25;12.25;;;;;;;;119891;1182;25170;-66
2023/04/22 05:31:25;;;;;;;;;14.67;11.00;;;;;;;;119927;1190;25650;-67
2023/04/22 05:33:53;;;;;;;;;10.00;9.75;;;;;;;;119902;1190;25129;-66
2023/04/22 05:36:21;;;;;;;;;14.75;11.25;;;;;;;;119893;1182;24954;-67
2023/04/22 05:38:49;;;;;;;;;14.25;10.75;;;;;;;;119708;1191;25966;-67
2023/04/22 05:41:17;;;;;;;;;8.25;7.00;;;;;;;;119911;1191;25446;-70
2023/04/22 05:43:45;;;;;;;;;12.00;9.00;;;;;;;;119923;1191;25005;-69
2023/04/22 05:46:14;;;;;;;;;9.33;9.00;;;;;;;;119768;1178;25014;-69
2023/04/22 05:48:42;;;;;;;;;14.50;12.50;;;;;;;;119924;1182;25368;-69
2023/04/22 05:51:10;;;;;;;;;14.67;9.00;;;;;;;;119916;1191;25518;-70
2023/04/22 05:53:39;;;;;;;;;11.00;10.00;;;;;;;;119747;1191;25559;-68
2023/04/22 05:56:07;;;;;;;;;7.75;7.75;;;;;;;;120192;1178;25602;-68
2023/04/22 05:58:36;;;;;;;;;11.00;8.33;;;;;;;;119940;1191;25343;-67
2023/04/22 06:01:04;;;;;;;;;11.75;10.75;;;;;;;;119908;1182;25544;-68
2023/04/22 06:03:33;;;;;;;;;8.50;8.50;;;;;;;;119900;1191;26478;-69
2023/04/22 06:06:01;;;;;;;;;5.00;5.00;;;;;;;;119902;1182;25266;-68
2023/04/22 06:08:30;;;;;;;;;8.25;6.75;;;;;;;;119888;1191;25076;-68
2023/04/22 06:10:59;;;;;;;;;9.50;8.50;;;;;;;;119907;1191;25044;-68
2023/04/22 06:13:27;;;;;;;;;11.00;11.00;;;;;;;;119713;1191;25449;-63
2023/04/22 06:15:55;;;;;;;;;8.00;7.00;;;;;;;;119921;1182;25752;-63
2023/04/22 06:18:24;;;;;;;;;7.00;7.00;;;;;;;;119793;1191;25302;-64
2023/04/22 06:20:54;;;;;;;;;8.67;7.00;;;;;;;;119902;1191;24778;-64
2023/04/22 06:23:22;;;;;;;;;7.00;6.67;;;;;;;;119927;1191;25226;-63
2023/04/22 06:25:51;;;;;;;;;14.00;8.00;;;;;;;;119936;1191;25186;-63
2023/04/22 06:28:19;;;;;;;;;8.75;8.75;;;;;;;;119909;1191;24761;-63
2023/04/22 06:30:48;;;;;;;;;11.33;7.00;;;;;;;;119923;1191;25022;-63
2023/04/22 06:33:16;;;;;;;;;9.50;6.75;;;;;;;;119920;1182;25256;-62
2023/04/22 06:35:44;;;;;;;;;7.25;6.75;;;;;;;;119897;1179;25093;-64
2023/04/22 06:38:13;;;;;;;;;7.50;6.25;;;;;;;;119880;1191;25680;-63
2023/04/22 06:40:42;;;;;;;;;10.75;7.50;;;;;;;;119769;1183;25053;-64
2023/04/22 06:43:10;;;;;;;;;7.75;7.50;;;;;;;;119805;1183;25132;-64
2023/04/22 06:45:39;;;;;;;;;13.00;9.00;;;;;;;;119901;1186;25203;-63
2023/04/22 06:48:07;;;;;;;;;10.25;6.75;;;;;;;;119888;1179;25500;-64
2023/04/22 06:50:35;;;;;;;;;9.00;9.00;;;;;;;;119909;1182;25628;-65
2023/04/22 06:53:04;;;;;;;;;10.25;8.00;;;;;;;;119907;1187;25706;-65
2023/04/22 06:55:32;;;;;;;;;8.25;6.50;;;;;;;;119903;1191;25272;-64
2023/04/22 06:58:00;;;;;;;;;8.00;7.25;;;;;;;;119904;1182;24785;-64
2023/04/22 07:00:28;;;;;;;;;8.67;7.33;;;;;;;;119915;1182;25503;-64
2023/04/22 07:02:57;;;;;;;;;10.50;8.00;;;;;;;;119928;1191;25552;-63
2023/04/22 07:05:25;;;;;;;;;10.25;6.25;;;;;;;;119776;1191;24931;-64
2023/04/22 07:07:53;;;;;;;;;8.00;6.33;;;;;;;;119913;1191;26221;-63
2023/04/22 07:10:22;;;;;;;;;10.00;7.33;;;;;;;;119900;1191;24763;-63
2023/04/22 07:12:50;;;;;;;;;9.00;7.67;;;;;;;;119788;1191;25702;-64
2023/04/22 07:15:18;;;;;;;;;8.00;3.00;;;;;;;;119925;1191;25778;-64
2023/04/22 07:17:46;;;;;;;;;11.33;7.67;;;;;;;;119906;1191;25443;-65
2023/04/22 07:20:15;;;;;;;;;9.00;7.00;;;;;;;;119901;1191;24814;-62
2023/04/22 07:22:43;;;;;;;;;6.33;6.33;;;;;;;;119790;1191;25294;-63
2023/04/22 07:25:11;;;;;;;;;10.25;7.25;;;;;;;;119908;1182;25225;-61
2023/04/22 07:27:39;;;;;;;;;9.50;8.50;;;;;;;;119911;1182;25743;-63
2023/04/22 07:30:10;;;;;;;;;8.00;6.00;;;;;;;;119909;1191;25321;-62
2023/04/22 07:32:38;;;;;;;;;8.33;6.33;;;;;;;;119764;1188;25371;-62
2023/04/22 07:35:07;;;;;;;;;11.00;9.00;;;;;;;;119909;1191;26492;-61
2023/04/22 07:37:35;;;;;;;;;8.33;8.00;;;;;;;;119784;1191;25562;-61
2023/04/22 07:40:04;;;;;;;;;11.50;10.00;;;;;;;;119778;1183;25760;-61
2023/04/22 07:42:32;;;;;;;;;7.00;6.00;;;;;;;;119930;1191;24752;-61
2023/04/22 07:45:01;;;;;;;;;8.00;7.00;;;;;;;;119746;1191;25543;-61
2023/04/22 07:47:29;;;;;;;;;7.50;6.00;;;;;;;;119908;1182;25504;-61
2023/04/22 07:49:58;;;;;;;;;12.25;8.75;;;;;;;;119756;1183;24974;-61
2023/04/22 07:52:26;;;;;;;;;10.50;8.50;;;;;;;;119908;1191;25333;-61
2023/04/22 07:54:55;;;;;;;;;9.00;8.00;;;;;;;;119898;1191;25231;-61
2023/04/22 07:57:23;;;;;;;;;8.00;7.00;;;;;;;;119775;1191;25136;-61
2023/04/22 07:59:51;;;;;;;;;7.50;6.25;;;;;;;;119947;1182;24895;-62
2023/04/22 08:02:20;;;;;;;;;10.50;8.75;;;;;;;;119748;1191;25535;-62
2023/04/22 08:04:48;;;;;;;;;7.00;5.00;;;;;;;;119906;1191;25068;-61
2023/04/22 08:07:17;;;;;;;;;8.00;8.00;;;;;;;;119918;1191;25181;-61
2023/04/22 08:10:00;;;;;;;;;10.50;8.00;;;;;;;;119915;1191;25221;-62
2023/04/22 08:12:28;;;;;;;;;10.67;8.67;;;;;;;;119497;1191;24899;-61
2023/04/22 08:14:57;;;;;;;;;8.00;8.00;;;;;;;;119913;1182;24799;-61
2023/04/22 08:17:25;;;;;;;;;10.67;10.00;;;;;;;;119899;1191;24785;-61
2023/04/22 08:19:54;;;;;;;;;7.00;7.00;;;;;;;;119912;1180;25783;-61
2023/04/22 08:22:22;;;;;;;;;10.00;8.67;;;;;;;;119915;1191;25631;-61
2023/04/22 08:24:51;;;;;;;;;8.25;5.75;;;;;;;;119740;1191;25477;-63
2023/04/22 08:27:21;;;;;;;;;10.00;8.67;;;;;;;;119918;1191;25470;-63
2023/04/22 08:29:49;;;;;;;;;9.00;7.67;;;;;;;;119703;1190;25556;-62
2023/04/22 08:32:18;;;;;;;;;13.00;9.00;;;;;;;;119903;1190;24699;-62
2023/04/22 08:34:47;;;;;;;;;9.67;8.00;;;;;;;;119916;1190;25590;-62
2023/04/22 08:37:17;;;;;;;;;8.50;6.50;;;;;;;;119780;1191;24850;-60
2023/04/22 08:39:45;;;;;;;;;10.67;7.67;;;;;;;;119789;1191;25104;-60
2023/04/22 08:42:14;;;;;;;;;8.67;6.67;;;;;;;;119915;1191;25662;-62
2023/04/22 08:44:44;;;;;;;;;7.67;5.67;;;;;;;;119747;1182;25230;-61
2023/04/22 08:47:14;;;;;;;;;8.25;6.75;;;;;;;;119903;1191;25559;-60
2023/04/22 08:49:42;;;;;;;;;7.00;5.00;;;;;;;;119712;1191;26292;-60
2023/04/22 08:52:14;;;;;;;;;9.00;6.75;;;;;;;;119935;1182;25402;-60
2023/04/22 08:54:42;;;;;;;;;8.00;6.00;;;;;;;;119772;1191;25549;-59
2023/04/22 08:57:11;;;;;;;;;5.67;5.00;;;;;;;;119915;1191;25065;-62
2023/04/22 08:59:40;;;;;;;;;8.75;6.00;;;;;;;;119775;1191;24745;-61
2023/04/22 09:02:16;;;;;;;;;6.33;6.33;;;;;;;;119708;1191;25163;-59
2023/04/22 09:04:47;;;;;;;;;5.00;5.00;;;;;;;;119916;1191;24793;-59
2023/04/22 09:07:24;;;;;;;;;6.00;6.00;;;;;;;;119781;1191;25587;-61
2023/04/22 09:09:56;;;;;;;;;9.67;8.00;;;;;;;;119904;1191;24830;-61
2023/04/22 09:12:24;;;;;;;;;6.00;6.00;;;;;;;;119747;1191;24902;-60
2023/04/22 09:14:53;;;;;;;;;10.33;8.33;;;;;;;;119737;1184;25763;-61
2023/04/22 09:17:32;;;;;;;;;8.33;5.00;;;;;;;;119722;1191;25677;-61
2023/04/22 09:20:03;;;;;;;;;6.75;6.25;;;;;;;;119893;1187;25284;-61
2023/04/22 09:22:46;;;;;;;;;7.00;7.00;;;;;;;;119909;1191;25308;-59
2023/04/22 09:25:16;;;;;;;;;10.00;8.33;;;;;;;;119816;1191;25308;-59
2023/04/22 09:27:52;;;;;;;;;8.00;7.67;;;;;;;;119503;1191;25015;-59
2023/04/22 09:30:28;;;;;;;;;5.25;5.25;;;;;;;;119759;1188;25363;-60
2023/04/22 09:32:58;;;;;;;;;6.50;6.50;;;;;;;;119918;1182;25651;-59
2023/04/22 09:35:28;;;;;;;;;5.50;5.50;;;;;;;;119896;1191;25420;-61
2023/04/22 09:37:58;;;;;;;;;8.67;7.33;;;;;;;;119765;1184;25027;-61
2023/04/22 09:40:28;;;;;;;;;8.00;7.75;;;;;;;;119928;1191;25269;-62
2023/04/22 09:42:59;;;;;;;;;8.00;6.33;;;;;;;;119772;1191;24727;-63
2023/04/22 09:45:28;;;;;;;;;7.00;5.50;;;;;;;;119932;1191;25051;-62
2023/04/22 09:47:59;;;;;;;;;9.25;6.00;;;;;;;;119901;1191;24893;-63
2023/04/22 09:50:28;;;;;;;;;6.67;6.33;;;;;;;;119759;1184;25559;-62
2023/04/22 09:52:59;;;;;;;;;5.33;5.00;;;;;;;;119788;1187;25308;-62
2023/04/22 09:55:29;;;;;;;;;6.33;6.33;;;;;;;;119896;1191;24760;-61
2023/04/22 09:58:08;;;;;;;;;7.50;6.00;;;;;;;;119919;1182;25461;-61
2023/04/22 10:00:45;;;;;;;;;6.25;5.50;;;;;;;;119880;1191;25591;-61
2023/04/22 10:03:14;;;;;;;;;5.75;5.00;;;;;;;;119924;1182;25506;-62
2023/04/22 10:05:44;;;;;;;;;7.25;5.75;;;;;;;;119770;1183;25471;-62
2023/04/22 10:08:14;;;;;;;;;6.75;6.75;;;;;;;;119926;1191;25283;-60
2023/04/22 10:10:45;;;;;;;;;5.33;5.00;;;;;;;;119779;1191;24720;-61
2023/04/22 10:13:13;;;;;;;;;6.67;4.00;;;;;;;;119922;1182;25708;-61
2023/04/22 10:15:44;;;;;;;;;6.25;5.50;;;;;;;;119927;1178;25672;-59
2023/04/22 10:18:18;;;;;;;;;5.50;5.50;;;;;;;;119714;1191;24995;-63
2023/04/22 10:20:46;;;;;;;;;12.50;6.00;;;;;;;;119918;1191;24987;-61
2023/04/22 10:23:18;;;;;;;;;6.00;6.00;;;;;;;;119806;1182;25000;-62
2023/04/22 10:25:52;;;;;;;;;7.67;6.00;;;;;;;;119910;1191;25375;-63
2023/04/22 10:28:22;;;;;;;;;7.67;7.67;;;;;;;;119915;1182;24872;-62
2023/04/22 10:30:50;;;;;;;;;8.75;5.50;;;;;;;;119706;1191;24725;-66
2023/04/22 10:33:32;;;;;;;;;8.50;6.00;;;;;;;;119906;1191;25537;-62
2023/04/22 10:36:08;;;;;;;;;11.33;7.33;;;;;;;;119925;1182;25042;-63
2023/04/22 10:38:59;;;;;;;;;9.00;7.00;;;;;;;;119915;1190;25040;-62
2023/04/22 10:41:33;;;;;;;;;12.00;8.00;;;;;;;;119838;1190;25543;-62
2023/04/22 10:44:07;;;;;;;;;9.00;6.00;;;;;;;;119894;1190;25444;-61
2023/04/22 10:46:41;;;;;;;;;9.75;8.00;;;;;;;;119889;1190;24684;-61
2023/04/22 10:49:10;;;;;;;;;11.75;7.50;;;;;;;;119899;1190;25014;-59
2023/04/22 10:51:53;;;;;;;;;5.67;3.00;;;;;;;;119763;1183;25307;-61
2023/04/22 10:54:27;;;;;;;;;15.00;9.25;;;;;;;;119941;1178;25770;-61
2023/04/22 10:57:17;;;;;;;;;9.50;7.25;;;;;;;;119922;1190;25387;-62
2023/04/22 10:59:48;;;;;;;;;14.00;10.00;;;;;;;;119923;1181;25682;-63
2023/04/22 11:02:18;;;;;;;;;14.00;9.50;;;;;;;;119877;1190;25514;-63
2023/04/22 11:04:47;;;;;;;;;12.75;12.00;;;;;;;;119915;1190;25148;-63
2023/04/22 11:07:29;;;;;;;;;11.50;10.00;;;;;;;;119730;1190;25196;-65
2023/04/22 11:10:00;;;;;;;;;13.75;9.25;;;;;;;;119936;1190;24894;-63
2023/04/22 11:12:34;;;;;;;;;13.25;8.50;;;;;;;;119883;1187;24990;-66
2023/04/22 11:15:10;;;;;;;;;17.67;8.33;;;;;;;;119924;1190;25667;-66
2023/04/22 11:17:42;;;;;;;;;11.25;7.25;;;;;;;;119895;1190;25602;-66
2023/04/22 11:20:17;;;;;;;;;13.75;10.25;;;;;;;;119889;1190;25060;-65
2023/04/22 11:22:48;;;;;;;;;14.33;10.67;;;;;;;;119927;1190;25453;-67
2023/04/22 11:25:16;;;;;;;;;15.33;12.33;;;;;;;;119922;1190;24804;-63
2023/04/22 11:27:45;;;;;;;;;17.25;12.50;;;;;;;;119897;1190;24875;-65
2023/04/22 11:30:14;;;;;;;;;11.00;8.00;;;;;;;;119728;1185;25092;-62
2023/04/22 11:32:44;;;;;;;;;9.67;9.00;;;;;;;;119919;1186;25561;-66
2023/04/22 11:35:25;;;;;;;;;11.25;9.25;;;;;;;;119908;1181;24923;-63
2023/04/22 11:38:01;;;;;;;;;11.33;9.00;;;;;;;;119879;1190;25433;-65
2023/04/22 11:40:32;;;;;;;;;12.33;10.00;;;;;;;;119889;1190;24795;-63
2023/04/22 11:43:06;;;;;;;;;12.00;9.50;;;;;;;;119883;1190;25649;-63
2023/04/22 11:45:36;;;;;;;;;9.00;8.00;;;;;;;;119908;1190;25206;-66
2023/04/22 11:48:07;;;;;;;;;15.50;12.00;;;;;;;;119879;1182;25607;-65
2023/04/22 11:50:37;;;;;;;;;14.00;8.67;;;;;;;;119891;1190;25248;-67
2023/04/22 11:53:16;;;;;;;;;15.67;9.00;;;;;;;;120043;1178;24984;-73
2023/04/22 11:55:46;;;;;;;;;16.75;11.50;;;;;;;;119718;1190;24928;-67
2023/04/22 11:58:26;;;;;;;;;15.50;11.00;;;;;;;;119877;1190;24826;-65
2023/04/22 12:00:57;;;;;;;;;14.00;11.00;;;;;;;;119908;1190;24737;-62
2023/04/22 12:03:27;;;;;;;;;14.33;10.33;;;;;;;;119893;1191;25369;-67
2023/04/22 12:05:58;;;;;;;;;16.33;11.00;;;;;;;;119727;1190;25627;-75
2023/04/22 12:08:40;;;;;;;;;12.00;11.00;;;;;;;;119933;1190;24839;-76
2023/04/22 12:11:11;;;;;;;;;16.00;11.75;;;;;;;;119930;1182;25318;-74
2023/04/22 12:13:42;;;;;;;;;17.00;11.50;;;;;;;;119898;1182;25071;-75
2023/04/22 12:16:21;;;;;;;;;17.67;11.00;;;;;;;;119928;1190;25560;-74
2023/04/22 12:18:50;;;;;;;;;20.00;10.00;;;;;;;;119938;1182;25309;-74
2023/04/22 12:21:23;;;;;;;;;15.25;10.00;;;;;;;;119906;1190;24953;-76
2023/04/22 12:23:53;;;;;;;;;13.00;10.00;;;;;;;;119900;1187;25455;-74
2023/04/22 12:26:23;;;;;;;;;14.50;10.00;;;;;;;;119883;1190;25459;-73
2023/04/22 12:28:55;;;;;;;;;11.00;9.50;;;;;;;;119909;1190;25595;-72
2023/04/22 12:31:24;;;;;;;;;14.00;10.00;;;;;;;;119922;1190;24864;-75
2023/04/22 12:33:52;;;;;;;;;14.50;11.50;;;;;;;;119882;1182;25691;-75
2023/04/22 12:36:22;;;;;;;;;9.25;8.75;;;;;;;;119913;1190;25355;-76
2023/04/22 12:38:50;;;;;;;;;19.67;13.67;;;;;;;;119876;1182;24736;-75
2023/04/22 12:41:18;;;;;;;;;12.50;10.50;;;;;;;;119900;1190;25029;-74
2023/04/22 12:43:47;;;;;;;;;10.00;10.00;;;;;;;;119890;1190;25109;-72
2023/04/22 12:46:15;;;;;;;;;17.00;10.50;;;;;;;;119927;1183;24884;-74
2023/04/22 12:48:43;;;;;;;;;13.50;10.50;;;;;;;;119915;1191;25228;-63
2023/04/22 12:51:12;;;;;;;;;13.50;9.50;;;;;;;;119902;1190;25470;-75
2023/04/22 12:53:40;;;;;;;;;17.50;12.75;;;;;;;;119952;1186;25528;-76
2023/04/22 12:56:08;;;;;;;;;19.33;14.00;;;;;;;;119883;1182;25608;-71
2023/04/22 12:58:36;;;;;;;;;12.33;10.67;;;;;;;;119911;1190;25520;-78
2023/04/22 13:01:05;;;;;;;;;17.50;11.50;;;;;;;;119912;1190;25548;-67
2023/04/22 13:03:33;;;;;;;;;15.00;11.67;;;;;;;;119867;1190;25093;-66
2023/04/22 13:06:01;;;;;;;;;20.00;13.00;;;;;;;;119897;1190;25488;-66
2023/04/22 13:08:30;;;;;;;;;13.25;10.75;;;;;;;;119872;1191;24872;-65
2023/04/22 13:10:59;;;;;;;;;13.33;9.33;;;;;;;;119916;1190;25425;-70
2023/04/22 13:13:27;;;;;;;;;14.00;13.00;;;;;;;;119913;1190;25663;-70
2023/04/22 13:15:55;;;;;;;;;17.00;12.00;;;;;;;;119937;1182;24958;-73
2023/04/22 13:18:24;;;;;;;;;12.75;9.25;;;;;;;;119907;1190;24748;-73
2023/04/22 13:20:55;;;;;;;;;15.75;12.75;;;;;;;;119908;1182;25255;-70
2023/04/22 13:23:24;;;;;;;;;15.33;12.33;;;;;;;;119934;1190;24741;-71
2023/04/22 13:25:53;;;;;;;;;16.33;12.67;;;;;;;;119898;1190;24900;-73
2023/04/22 13:28:21;;;;;;;;;16.00;14.00;;;;;;;;119740;1188;25058;-70
2023/04/22 13:30:50;;;;;;;;;12.67;12.00;;;;;;;;119876;1189;24918;-68
2023/04/22 13:33:18;;;;;;;;;13.33;12.00;;;;;;;;119887;1190;24713;-69
2023/04/22 13:35:46;;;;;;;;;14.33;13.00;;;;;;;;119903;1190;25488;-71
2023/04/22 13:38:15;;;;;;;;;13.00;11.00;;;;;;;;119765;1191;25227;-70
2023/04/22 13:40:43;;;;;;;;;17.00;13.00;;;;;;;;119905;1182;25470;-71
2023/04/22 13:43:11;;;;;;;;;15.00;14.00;;;;;;;;119931;1191;24927;-69
2023/04/22 13:45:41;;;;;;;;;18.67;15.33;;;;;;;;119896;1182;25015;-70
2023/04/22 13:48:09;;;;;;;;;17.00;16.50;;;;;;;;119916;1191;25487;-69
2023/04/22 13:50:41;;;;;;;;;18.00;16.00;;;;;;;;119515;1191;25592;-71
2023/04/22 13:53:11;;;;;;;;;14.67;13.33;;;;;;;;119917;1187;25303;-69
2023/04/22 13:55:39;;;;;;;;;16.75;16.00;;;;;;;;119771;1191;25490;-69
2023/04/22 13:58:07;;;;;;;;;17.00;15.00;;;;;;;;119765;1178;24844;-68
2023/04/22 14:00:36;;;;;;;;;21.00;18.00;;;;;;;;119884;1191;25420;-70
2023/04/22 14:03:05;;;;;;;;;18.25;15.00;;;;;;;;119742;1188;25106;-69
2023/04/22 14:05:34;;;;;;;;;14.50;13.50;;;;;;;;119932;1182;24823;-69
2023/04/22 14:08:03;;;;;;;;;19.75;15.00;;;;;;;;119907;1191;25586;-71
2023/04/22 14:10:31;;;;;;;;;18.33;14.00;;;;;;;;119916;1182;25815;-73
2023/04/22 14:12:59;;;;;;;;;23.00;17.75;;;;;;;;119889;1191;24807;-65
2023/04/22 14:15:28;;;;;;;;;21.00;13.00;;;;;;;;119710;1190;26686;-64
2023/04/22 14:17:56;;;;;;;;;17.00;14.25;;;;;;;;119890;1190;25330;-63
2023/04/22 14:20:24;;;;;;;;;14.00;13.50;;;;;;;;119914;1182;25117;-64
2023/04/22 14:22:53;;;;;;;;;13.50;13.50;;;;;;;;119893;1190;25103;-64
2023/04/22 14:25:21;;;;;;;;;14.50;10.50;;;;;;;;119916;1190;25555;-61
2023/04/22 14:27:49;;;;;;;;;17.75;13.50;;;;;;;;119886;1182;25235;-64
2023/04/22 14:30:19;;;;;;;;;12.00;10.67;;;;;;;;119875;1190;25341;-64
2023/04/22 14:32:48;;;;;;;;;15.75;14.00;;;;;;;;119877;1190;25664;-64
2023/04/22 14:35:16;;;;;;;;;14.00;12.50;;;;;;;;119915;1190;25503;-63